South Wheelock, Vermont
Current Conditions -  °F | °C
As of 1:55 AM on Saturday 25 Oct 2014 (Local Time) from KCDA Reporting Station
Clear Clear  
Wind Chill: 38°   Ceiling: Unl
Heat Index: 38°   Visibility: 10mi
Dew Point: 33°   Wind: 0mph
Humidity: 83%   Direction: NA
Pressure: 29.79"   Gusts: NA
Location:  44.5541°N, 72.0612°W
Report Text: KCDA 250555Z AUTO 00000KT 10SM CLR 03/01 A2979 RMK AO2 T00320005 10065 20027
Loading
Personal Weather Stations






























Interactive Weather Map New forecast layout! Learn more

10-Day Weather Forecast

Advertisements
Track Severe Weather on mobile